sensor_id;sensor_type;location;lat;lon;timestamp;P1;durP1;ratioP1;P2;durP2;ratioP2
77046;SDS011;65977;56.380;44.022;2022-12-18T00:00:43;20.02;;;11.32;;
77046;SDS011;65977;56.380;44.022;2022-12-18T00:03:12;16.13;;;8.20;;
77046;SDS011;65977;56.380;44.022;2022-12-18T00:05:45;18.85;;;9.88;;
77046;SDS011;65977;56.380;44.022;2022-12-18T00:08:14;17.48;;;11.05;;
77046;SDS011;65977;56.380;44.022;2022-12-18T00:10:40;16.50;;;8.85;;
77046;SDS011;65977;56.380;44.022;2022-12-18T00:13:05;17.70;;;9.55;;
77046;SDS011;65977;56.380;44.022;2022-12-18T00:15:33;15.15;;;9.23;;
77046;SDS011;65977;56.380;44.022;2022-12-18T00:17:59;19.95;;;9.57;;
77046;SDS011;65977;56.380;44.022;2022-12-18T00:20:25;14.88;;;8.13;;
77046;SDS011;65977;56.380;44.022;2022-12-18T00:22:54;20.35;;;11.82;;
77046;SDS011;65977;56.380;44.022;2022-12-18T00:25:20;21.75;;;10.68;;
77046;SDS011;65977;56.380;44.022;2022-12-18T00:27:45;18.73;;;10.25;;
77046;SDS011;65977;56.380;44.022;2022-12-18T00:30:11;25.98;;;13.57;;
77046;SDS011;65977;56.380;44.022;2022-12-18T00:32:37;20.33;;;11.32;;
77046;SDS011;65977;56.380;44.022;2022-12-18T00:35:03;18.25;;;10.38;;
77046;SDS011;65977;56.380;44.022;2022-12-18T00:37:30;15.68;;;9.32;;
77046;SDS011;65977;56.380;44.022;2022-12-18T00:39:55;20.13;;;11.38;;
77046;SDS011;65977;56.380;44.022;2022-12-18T00:42:21;21.85;;;13.27;;
77046;SDS011;65977;56.380;44.022;2022-12-18T00:45:06;17.27;;;9.70;;
77046;SDS011;65977;56.380;44.022;2022-12-18T00:47:31;20.73;;;10.25;;
77046;SDS011;65977;56.380;44.022;2022-12-18T00:49:57;19.30;;;10.77;;
77046;SDS011;65977;56.380;44.022;2022-12-18T00:52:23;17.67;;;10.00;;
77046;SDS011;65977;56.380;44.022;2022-12-18T00:54:48;17.45;;;10.52;;
77046;SDS011;65977;56.380;44.022;2022-12-18T00:57:14;21.80;;;11.13;;
77046;SDS011;65977;56.380;44.022;2022-12-18T00:59:39;18.67;;;11.20;;
77046;SDS011;65977;56.380;44.022;2022-12-18T01:02:05;19.52;;;10.63;;
77046;SDS011;65977;56.380;44.022;2022-12-18T01:04:31;18.73;;;9.25;;
77046;SDS011;65977;56.380;44.022;2022-12-18T01:06:58;19.90;;;10.35;;
77046;SDS011;65977;56.380;44.022;2022-12-18T01:09:23;19.85;;;10.88;;
77046;SDS011;65977;56.380;44.022;2022-12-18T01:11:49;19.05;;;9.40;;
77046;SDS011;65977;56.380;44.022;2022-12-18T01:14:15;21.13;;;11.18;;
77046;SDS011;65977;56.380;44.022;2022-12-18T01:16:41;21.73;;;12.18;;
77046;SDS011;65977;56.380;44.022;2022-12-18T01:19:06;17.08;;;9.95;;
77046;SDS011;65977;56.380;44.022;2022-12-18T01:21:32;15.52;;;8.75;;
77046;SDS011;65977;56.380;44.022;2022-12-18T01:23:58;18.55;;;10.25;;
77046;SDS011;65977;56.380;44.022;2022-12-18T01:26:24;19.15;;;12.68;;
77046;SDS011;65977;56.380;44.022;2022-12-18T01:28:50;20.15;;;10.90;;
77046;SDS011;65977;56.380;44.022;2022-12-18T01:31:20;21.75;;;11.52;;
77046;SDS011;65977;56.380;44.022;2022-12-18T01:33:48;19.05;;;9.40;;
77046;SDS011;65977;56.380;44.022;2022-12-18T01:36:16;21.90;;;11.57;;
77046;SDS011;65977;56.380;44.022;2022-12-18T01:38:47;22.50;;;11.52;;
77046;SDS011;65977;56.380;44.022;2022-12-18T01:41:13;22.60;;;11.50;;
77046;SDS011;65977;56.380;44.022;2022-12-18T01:43:41;15.95;;;8.60;;
77046;SDS011;65977;56.380;44.022;2022-12-18T01:46:12;18.10;;;8.90;;
77046;SDS011;65977;56.380;44.022;2022-12-18T01:48:39;16.20;;;9.32;;
77046;SDS011;65977;56.380;44.022;2022-12-18T01:51:06;19.42;;;11.10;;
77046;SDS011;65977;56.380;44.022;2022-12-18T01:53:34;17.77;;;9.50;;
77046;SDS011;65977;56.380;44.022;2022-12-18T01:56:01;20.13;;;10.57;;
77046;SDS011;65977;56.380;44.022;2022-12-18T01:58:32;19.50;;;10.85;;
77046;SDS011;65977;56.380;44.022;2022-12-18T02:01:04;20.90;;;11.00;;
77046;SDS011;65977;56.380;44.022;2022-12-18T02:03:30;21.65;;;9.43;;
77046;SDS011;65977;56.380;44.022;2022-12-18T02:14:04;23.77;;;10.43;;
77046;SDS011;65977;56.380;44.022;2022-12-18T02:16:52;20.27;;;11.43;;
77046;SDS011;65977;56.380;44.022;2022-12-18T02:25:02;21.40;;;9.45;;
77046;SDS011;65977;56.380;44.022;2022-12-18T02:27:48;17.95;;;9.95;;
77046;SDS011;65977;56.380;44.022;2022-12-18T02:30:16;15.95;;;9.05;;
77046;SDS011;65977;56.380;44.022;2022-12-18T02:32:47;16.52;;;9.32;;
77046;SDS011;65977;56.380;44.022;2022-12-18T02:35:20;12.93;;;7.05;;
77046;SDS011;65977;56.380;44.022;2022-12-18T02:37:53;19.90;;;10.52;;
77046;SDS011;65977;56.380;44.022;2022-12-18T02:40:20;15.77;;;9.73;;
77046;SDS011;65977;56.380;44.022;2022-12-18T02:42:48;16.60;;;9.32;;
77046;SDS011;65977;56.380;44.022;2022-12-18T02:45:14;16.08;;;10.02;;
77046;SDS011;65977;56.380;44.022;2022-12-18T02:47:40;16.80;;;9.27;;
77046;SDS011;65977;56.380;44.022;2022-12-18T03:00:58;19.55;;;9.30;;
77046;SDS011;65977;56.380;44.022;2022-12-18T03:03:37;16.95;;;9.57;;
77046;SDS011;65977;56.380;44.022;2022-12-18T03:06:11;14.95;;;8.43;;
77046;SDS011;65977;56.380;44.022;2022-12-18T03:08:44;17.92;;;9.45;;
77046;SDS011;65977;56.380;44.022;2022-12-18T03:11:13;14.73;;;7.35;;
77046;SDS011;65977;56.380;44.022;2022-12-18T03:13:49;17.33;;;8.90;;
77046;SDS011;65977;56.380;44.022;2022-12-18T03:16:25;15.57;;;8.65;;
77046;SDS011;65977;56.380;44.022;2022-12-18T03:19:13;14.00;;;8.05;;
77046;SDS011;65977;56.380;44.022;2022-12-18T03:21:44;17.58;;;8.90;;
77046;SDS011;65977;56.380;44.022;2022-12-18T03:24:12;13.25;;;8.13;;
77046;SDS011;65977;56.380;44.022;2022-12-18T03:26:41;19.00;;;10.50;;
77046;SDS011;65977;56.380;44.022;2022-12-18T03:29:17;12.73;;;7.90;;
77046;SDS011;65977;56.380;44.022;2022-12-18T03:31:52;12.52;;;7.07;;
77046;SDS011;65977;56.380;44.022;2022-12-18T03:34:23;18.42;;;9.82;;
77046;SDS011;65977;56.380;44.022;2022-12-18T03:37:00;11.35;;;6.38;;
77046;SDS011;65977;56.380;44.022;2022-12-18T03:39:29;12.95;;;8.13;;
77046;SDS011;65977;56.380;44.022;2022-12-18T03:42:03;15.10;;;8.77;;
77046;SDS011;65977;56.380;44.022;2022-12-18T03:44:40;15.75;;;8.93;;
77046;SDS011;65977;56.380;44.022;2022-12-18T03:50:18;13.13;;;6.75;;
77046;SDS011;65977;56.380;44.022;2022-12-18T03:53:07;12.40;;;7.68;;
77046;SDS011;65977;56.380;44.022;2022-12-18T03:55:39;11.55;;;6.97;;
77046;SDS011;65977;56.380;44.022;2022-12-18T03:58:06;14.55;;;8.32;;
77046;SDS011;65977;56.380;44.022;2022-12-18T04:00:35;14.35;;;7.40;;
77046;SDS011;65977;56.380;44.022;2022-12-18T04:03:00;10.77;;;5.93;;
77046;SDS011;65977;56.380;44.022;2022-12-18T04:05:28;13.70;;;8.25;;
77046;SDS011;65977;56.380;44.022;2022-12-18T04:07:57;9.70;;;6.80;;
77046;SDS011;65977;56.380;44.022;2022-12-18T04:10:23;13.40;;;7.68;;
77046;SDS011;65977;56.380;44.022;2022-12-18T04:12:48;10.43;;;6.35;;
77046;SDS011;65977;56.380;44.022;2022-12-18T04:15:14;7.85;;;5.20;;
77046;SDS011;65977;56.380;44.022;2022-12-18T04:17:43;12.52;;;7.57;;
77046;SDS011;65977;56.380;44.022;2022-12-18T04:20:13;13.00;;;7.50;;
77046;SDS011;65977;56.380;44.022;2022-12-18T04:22:39;10.40;;;6.13;;
77046;SDS011;65977;56.380;44.022;2022-12-18T04:25:05;13.02;;;7.20;;
77046;SDS011;65977;56.380;44.022;2022-12-18T04:27:30;13.82;;;7.97;;
77046;SDS011;65977;56.380;44.022;2022-12-18T04:29:56;14.15;;;7.65;;
77046;SDS011;65977;56.380;44.022;2022-12-18T04:32:22;13.80;;;6.95;;
77046;SDS011;65977;56.380;44.022;2022-12-18T04:34:47;11.43;;;7.55;;
77046;SDS011;65977;56.380;44.022;2022-12-18T04:37:13;10.32;;;7.13;;
77046;SDS011;65977;56.380;44.022;2022-12-18T04:39:39;10.32;;;5.65;;
77046;SDS011;65977;56.380;44.022;2022-12-18T04:42:05;12.35;;;6.97;;
77046;SDS011;65977;56.380;44.022;2022-12-18T04:44:30;14.68;;;8.10;;
77046;SDS011;65977;56.380;44.022;2022-12-18T04:46:56;13.57;;;7.97;;
77046;SDS011;65977;56.380;44.022;2022-12-18T04:49:21;12.57;;;7.82;;
77046;SDS011;65977;56.380;44.022;2022-12-18T04:51:47;12.95;;;7.75;;
77046;SDS011;65977;56.380;44.022;2022-12-18T04:54:13;13.35;;;8.40;;
77046;SDS011;65977;56.380;44.022;2022-12-18T04:56:39;10.93;;;7.10;;
77046;SDS011;65977;56.380;44.022;2022-12-18T04:59:04;14.85;;;8.35;;
77046;SDS011;65977;56.380;44.022;2022-12-18T05:01:33;15.25;;;8.20;;
77046;SDS011;65977;56.380;44.022;2022-12-18T05:03:59;12.20;;;7.13;;
77046;SDS011;65977;56.380;44.022;2022-12-18T05:06:24;12.27;;;8.13;;
77046;SDS011;65977;56.380;44.022;2022-12-18T05:08:50;10.48;;;6.10;;
77046;SDS011;65977;56.380;44.022;2022-12-18T05:11:15;13.57;;;7.75;;
77046;SDS011;65977;56.380;44.022;2022-12-18T05:13:41;12.82;;;7.82;;
77046;SDS011;65977;56.380;44.022;2022-12-18T05:16:08;14.38;;;7.35;;
77046;SDS011;65977;56.380;44.022;2022-12-18T05:18:34;10.82;;;7.07;;
77046;SDS011;65977;56.380;44.022;2022-12-18T05:21:00;10.25;;;6.95;;
77046;SDS011;65977;56.380;44.022;2022-12-18T05:23:26;11.43;;;7.07;;
77046;SDS011;65977;56.380;44.022;2022-12-18T05:28:22;11.70;;;7.55;;
77046;SDS011;65977;56.380;44.022;2022-12-18T05:30:50;16.05;;;8.18;;
77046;SDS011;65977;56.380;44.022;2022-12-18T05:33:20;13.95;;;7.65;;
77046;SDS011;65977;56.380;44.022;2022-12-18T05:35:50;11.13;;;6.68;;
77046;SDS011;65977;56.380;44.022;2022-12-18T05:38:18;13.73;;;7.65;;
77046;SDS011;65977;56.380;44.022;2022-12-18T05:40:44;12.35;;;7.70;;
77046;SDS011;65977;56.380;44.022;2022-12-18T05:43:10;11.43;;;6.72;;
77046;SDS011;65977;56.380;44.022;2022-12-18T05:45:38;11.68;;;6.90;;
77046;SDS011;65977;56.380;44.022;2022-12-18T05:48:05;12.75;;;8.13;;
77046;SDS011;65977;56.380;44.022;2022-12-18T05:50:35;12.63;;;8.95;;
77046;SDS011;65977;56.380;44.022;2022-12-18T05:53:02;12.95;;;7.10;;
77046;SDS011;65977;56.380;44.022;2022-12-18T05:55:28;10.55;;;6.65;;
77046;SDS011;65977;56.380;44.022;2022-12-18T05:57:54;11.45;;;6.78;;
77046;SDS011;65977;56.380;44.022;2022-12-18T06:00:20;11.82;;;7.05;;
77046;SDS011;65977;56.380;44.022;2022-12-18T06:02:48;11.23;;;6.85;;
77046;SDS011;65977;56.380;44.022;2022-12-18T06:05:14;10.48;;;6.60;;
77046;SDS011;65977;56.380;44.022;2022-12-18T06:07:39;12.10;;;7.43;;
77046;SDS011;65977;56.380;44.022;2022-12-18T06:10:05;16.55;;;7.80;;
77046;SDS011;65977;56.380;44.022;2022-12-18T06:12:31;11.77;;;6.78;;
77046;SDS011;65977;56.380;44.022;2022-12-18T06:14:59;11.20;;;6.55;;
77046;SDS011;65977;56.380;44.022;2022-12-18T06:17:28;11.45;;;6.45;;
77046;SDS011;65977;56.380;44.022;2022-12-18T06:19:55;11.27;;;6.53;;
77046;SDS011;65977;56.380;44.022;2022-12-18T06:22:20;11.73;;;7.20;;
77046;SDS011;65977;56.380;44.022;2022-12-18T06:24:46;9.38;;;6.43;;
77046;SDS011;65977;56.380;44.022;2022-12-18T06:27:11;12.85;;;7.25;;
77046;SDS011;65977;56.380;44.022;2022-12-18T06:29:37;19.83;;;10.48;;
77046;SDS011;65977;56.380;44.022;2022-12-18T06:32:03;10.90;;;6.43;;
77046;SDS011;65977;56.380;44.022;2022-12-18T06:34:29;11.70;;;7.00;;
77046;SDS011;65977;56.380;44.022;2022-12-18T06:36:57;10.77;;;6.93;;
77046;SDS011;65977;56.380;44.022;2022-12-18T06:39:24;13.93;;;7.55;;
77046;SDS011;65977;56.380;44.022;2022-12-18T06:41:50;12.35;;;7.25;;
77046;SDS011;65977;56.380;44.022;2022-12-18T06:44:15;13.15;;;7.40;;
77046;SDS011;65977;56.380;44.022;2022-12-18T06:46:41;11.07;;;7.13;;
77046;SDS011;65977;56.380;44.022;2022-12-18T06:49:07;11.05;;;6.35;;
77046;SDS011;65977;56.380;44.022;2022-12-18T06:51:34;11.25;;;6.30;;
77046;SDS011;65977;56.380;44.022;2022-12-18T06:54:00;13.38;;;7.03;;
77046;SDS011;65977;56.380;44.022;2022-12-18T06:56:25;11.48;;;7.38;;
77046;SDS011;65977;56.380;44.022;2022-12-18T06:58:51;10.52;;;6.72;;
77046;SDS011;65977;56.380;44.022;2022-12-18T07:01:18;11.48;;;6.80;;
77046;SDS011;65977;56.380;44.022;2022-12-18T07:03:43;13.40;;;5.97;;
77046;SDS011;65977;56.380;44.022;2022-12-18T07:06:16;10.57;;;7.25;;
77046;SDS011;65977;56.380;44.022;2022-12-18T07:08:44;11.13;;;6.05;;
77046;SDS011;65977;56.380;44.022;2022-12-18T07:11:10;13.35;;;7.53;;
77046;SDS011;65977;56.380;44.022;2022-12-18T07:13:36;12.43;;;8.45;;
77046;SDS011;65977;56.380;44.022;2022-12-18T07:16:06;13.45;;;7.70;;
77046;SDS011;65977;56.380;44.022;2022-12-18T07:18:42;11.75;;;7.03;;
77046;SDS011;65977;56.380;44.022;2022-12-18T07:21:09;11.45;;;7.63;;
77046;SDS011;65977;56.380;44.022;2022-12-18T07:23:37;10.50;;;6.60;;
77046;SDS011;65977;56.380;44.022;2022-12-18T07:26:04;11.55;;;7.15;;
77046;SDS011;65977;56.380;44.022;2022-12-18T07:28:32;11.98;;;6.15;;
77046;SDS011;65977;56.380;44.022;2022-12-18T07:31:02;12.95;;;7.97;;
77046;SDS011;65977;56.380;44.022;2022-12-18T07:33:29;14.43;;;7.72;;
77046;SDS011;65977;56.380;44.022;2022-12-18T07:35:55;12.60;;;7.05;;
77046;SDS011;65977;56.380;44.022;2022-12-18T07:38:20;12.48;;;7.30;;
77046;SDS011;65977;56.380;44.022;2022-12-18T07:40:46;9.63;;;6.15;;
77046;SDS011;65977;56.380;44.022;2022-12-18T07:43:12;13.93;;;7.75;;
77046;SDS011;65977;56.380;44.022;2022-12-18T07:45:37;12.60;;;7.65;;
77046;SDS011;65977;56.380;44.022;2022-12-18T07:48:03;13.13;;;7.88;;
77046;SDS011;65977;56.380;44.022;2022-12-18T07:50:29;13.52;;;6.63;;
77046;SDS011;65977;56.380;44.022;2022-12-18T07:52:55;13.20;;;8.85;;
77046;SDS011;65977;56.380;44.022;2022-12-18T07:55:20;11.55;;;6.97;;
77046;SDS011;65977;56.380;44.022;2022-12-18T07:57:46;10.88;;;6.93;;
77046;SDS011;65977;56.380;44.022;2022-12-18T08:00:12;13.77;;;8.55;;
77046;SDS011;65977;56.380;44.022;2022-12-18T08:02:38;13.57;;;7.72;;
77046;SDS011;65977;56.380;44.022;2022-12-18T08:05:04;16.45;;;10.18;;
77046;SDS011;65977;56.380;44.022;2022-12-18T08:07:30;14.60;;;8.25;;
77046;SDS011;65977;56.380;44.022;2022-12-18T08:09:55;13.43;;;7.70;;
77046;SDS011;65977;56.380;44.022;2022-12-18T08:12:21;12.48;;;7.75;;
77046;SDS011;65977;56.380;44.022;2022-12-18T08:14:47;12.65;;;7.25;;
77046;SDS011;65977;56.380;44.022;2022-12-18T08:17:12;12.65;;;7.20;;
77046;SDS011;65977;56.380;44.022;2022-12-18T08:19:38;10.35;;;7.35;;
77046;SDS011;65977;56.380;44.022;2022-12-18T08:22:03;8.65;;;5.72;;
77046;SDS011;65977;56.380;44.022;2022-12-18T08:24:29;14.05;;;8.07;;
77046;SDS011;65977;56.380;44.022;2022-12-18T08:26:55;10.40;;;7.20;;
77046;SDS011;65977;56.380;44.022;2022-12-18T08:29:22;14.32;;;7.85;;
77046;SDS011;65977;56.380;44.022;2022-12-18T08:31:48;10.75;;;7.10;;
77046;SDS011;65977;56.380;44.022;2022-12-18T08:34:13;12.35;;;7.78;;
77046;SDS011;65977;56.380;44.022;2022-12-18T08:36:39;12.82;;;7.85;;
77046;SDS011;65977;56.380;44.022;2022-12-18T08:39:05;13.75;;;8.98;;
77046;SDS011;65977;56.380;44.022;2022-12-18T08:41:31;13.18;;;8.35;;
77046;SDS011;65977;56.380;44.022;2022-12-18T08:43:56;13.18;;;9.02;;
77046;SDS011;65977;56.380;44.022;2022-12-18T08:46:41;13.45;;;7.68;;
77046;SDS011;65977;56.380;44.022;2022-12-18T08:49:08;13.98;;;8.30;;
77046;SDS011;65977;56.380;44.022;2022-12-18T08:51:35;17.58;;;9.48;;
77046;SDS011;65977;56.380;44.022;2022-12-18T08:54:02;14.40;;;8.68;;
77046;SDS011;65977;56.380;44.022;2022-12-18T08:56:28;11.50;;;6.80;;
77046;SDS011;65977;56.380;44.022;2022-12-18T08:58:55;14.63;;;8.75;;
77046;SDS011;65977;56.380;44.022;2022-12-18T09:01:21;11.82;;;7.68;;
77046;SDS011;65977;56.380;44.022;2022-12-18T09:03:48;13.13;;;8.10;;
77046;SDS011;65977;56.380;44.022;2022-12-18T09:06:15;14.02;;;8.27;;
77046;SDS011;65977;56.380;44.022;2022-12-18T09:08:43;14.10;;;8.45;;
77046;SDS011;65977;56.380;44.022;2022-12-18T09:11:13;21.50;;;11.63;;
77046;SDS011;65977;56.380;44.022;2022-12-18T09:13:43;15.95;;;8.40;;
77046;SDS011;65977;56.380;44.022;2022-12-18T09:16:09;15.80;;;8.73;;
77046;SDS011;65977;56.380;44.022;2022-12-18T09:18:35;13.68;;;8.40;;
77046;SDS011;65977;56.380;44.022;2022-12-18T09:21:07;15.40;;;8.85;;
77046;SDS011;65977;56.380;44.022;2022-12-18T09:23:40;13.93;;;9.27;;
77046;SDS011;65977;56.380;44.022;2022-12-18T09:26:06;15.70;;;8.88;;
77046;SDS011;65977;56.380;44.022;2022-12-18T09:28:32;13.85;;;8.30;;
77046;SDS011;65977;56.380;44.022;2022-12-18T09:30:58;15.73;;;9.32;;
77046;SDS011;65977;56.380;44.022;2022-12-18T09:33:23;13.88;;;8.07;;
77046;SDS011;65977;56.380;44.022;2022-12-18T09:35:50;14.93;;;8.25;;
77046;SDS011;65977;56.380;44.022;2022-12-18T09:38:16;12.38;;;7.38;;
77046;SDS011;65977;56.380;44.022;2022-12-18T09:40:45;20.63;;;8.15;;
77046;SDS011;65977;56.380;44.022;2022-12-18T09:43:17;20.30;;;14.30;;
77046;SDS011;65977;56.380;44.022;2022-12-18T09:45:56;13.50;;;7.90;;
77046;SDS011;65977;56.380;44.022;2022-12-18T09:48:31;14.35;;;9.32;;
77046;SDS011;65977;56.380;44.022;2022-12-18T09:51:03;15.02;;;8.70;;
77046;SDS011;65977;56.380;44.022;2022-12-18T09:53:43;12.65;;;8.30;;
77046;SDS011;65977;56.380;44.022;2022-12-18T09:56:16;14.07;;;9.00;;
77046;SDS011;65977;56.380;44.022;2022-12-18T09:59:00;15.30;;;8.57;;
77046;SDS011;65977;56.380;44.022;2022-12-18T10:01:28;17.58;;;12.18;;
77046;SDS011;65977;56.380;44.022;2022-12-18T10:03:54;15.05;;;8.50;;
77046;SDS011;65977;56.380;44.022;2022-12-18T10:06:23;16.20;;;10.15;;
77046;SDS011;65977;56.380;44.022;2022-12-18T10:27:58;12.25;;;7.07;;
77046;SDS011;65977;56.380;44.022;2022-12-18T10:30:32;11.55;;;7.43;;
77046;SDS011;65977;56.380;44.022;2022-12-18T10:33:01;12.52;;;7.88;;
77046;SDS011;65977;56.380;44.022;2022-12-18T10:35:28;12.25;;;7.57;;
77046;SDS011;65977;56.380;44.022;2022-12-18T10:40:27;13.50;;;7.80;;
77046;SDS011;65977;56.380;44.022;2022-12-18T10:43:05;14.85;;;8.00;;
77046;SDS011;65977;56.380;44.022;2022-12-18T10:45:37;14.95;;;8.63;;
77046;SDS011;65977;56.380;44.022;2022-12-18T10:48:03;16.10;;;8.85;;
77046;SDS011;65977;56.380;44.022;2022-12-18T10:53:00;11.75;;;8.35;;
77046;SDS011;65977;56.380;44.022;2022-12-18T10:55:31;13.40;;;7.60;;
77046;SDS011;65977;56.380;44.022;2022-12-18T11:01:05;15.55;;;7.47;;
77046;SDS011;65977;56.380;44.022;2022-12-18T11:03:42;12.40;;;7.15;;
77046;SDS011;65977;56.380;44.022;2022-12-18T11:06:20;14.55;;;8.50;;
77046;SDS011;65977;56.380;44.022;2022-12-18T11:11:31;13.57;;;7.30;;
77046;SDS011;65977;56.380;44.022;2022-12-18T11:13:59;12.27;;;7.63;;
77046;SDS011;65977;56.380;44.022;2022-12-18T11:16:47;14.25;;;7.72;;
77046;SDS011;65977;56.380;44.022;2022-12-18T11:19:26;13.15;;;8.30;;
77046;SDS011;65977;56.380;44.022;2022-12-18T11:21:53;10.90;;;6.82;;
77046;SDS011;65977;56.380;44.022;2022-12-18T11:24:32;14.68;;;8.00;;
77046;SDS011;65977;56.380;44.022;2022-12-18T11:27:03;12.18;;;6.65;;
77046;SDS011;65977;56.380;44.022;2022-12-18T11:29:37;12.55;;;7.05;;
77046;SDS011;65977;56.380;44.022;2022-12-18T11:34:50;11.45;;;7.50;;
77046;SDS011;65977;56.380;44.022;2022-12-18T11:39:59;12.13;;;7.05;;
77046;SDS011;65977;56.380;44.022;2022-12-18T11:42:39;10.10;;;6.43;;
77046;SDS011;65977;56.380;44.022;2022-12-18T11:45:16;14.43;;;7.68;;
77046;SDS011;65977;56.380;44.022;2022-12-18T11:47:51;23.15;;;9.20;;
77046;SDS011;65977;56.380;44.022;2022-12-18T11:50:28;13.60;;;6.50;;
77046;SDS011;65977;56.380;44.022;2022-12-18T11:52:58;12.95;;;7.32;;
77046;SDS011;65977;56.380;44.022;2022-12-18T12:03:55;13.30;;;8.65;;
77046;SDS011;65977;56.380;44.022;2022-12-18T12:06:36;12.80;;;6.93;;
77046;SDS011;65977;56.380;44.022;2022-12-18T12:12:16;14.45;;;6.80;;
77046;SDS011;65977;56.380;44.022;2022-12-18T12:14:50;14.52;;;6.93;;
77046;SDS011;65977;56.380;44.022;2022-12-18T12:17:45;9.55;;;5.85;;
77046;SDS011;65977;56.380;44.022;2022-12-18T12:23:17;8.93;;;5.50;;
77046;SDS011;65977;56.380;44.022;2022-12-18T12:26:12;9.32;;;6.07;;
77046;SDS011;65977;56.380;44.022;2022-12-18T12:31:41;7.97;;;4.63;;
77046;SDS011;65977;56.380;44.022;2022-12-18T12:34:26;8.15;;;5.50;;
77046;SDS011;65977;56.380;44.022;2022-12-18T12:39:45;9.45;;;6.28;;
77046;SDS011;65977;56.380;44.022;2022-12-18T12:45:39;7.90;;;5.47;;
77046;SDS011;65977;56.380;44.022;2022-12-18T12:50:48;7.03;;;4.72;;
77046;SDS011;65977;56.380;44.022;2022-12-18T12:53:20;9.70;;;5.45;;
77046;SDS011;65977;56.380;44.022;2022-12-18T12:55:58;7.85;;;5.07;;
77046;SDS011;65977;56.380;44.022;2022-12-18T13:04:06;10.57;;;6.82;;
77046;SDS011;65977;56.380;44.022;2022-12-18T13:09:08;9.75;;;5.55;;
77046;SDS011;65977;56.380;44.022;2022-12-18T13:11:35;8.23;;;4.85;;
77046;SDS011;65977;56.380;44.022;2022-12-18T13:14:24;8.52;;;5.50;;
77046;SDS011;65977;56.380;44.022;2022-12-18T13:20:10;9.13;;;5.45;;
77046;SDS011;65977;56.380;44.022;2022-12-18T13:22:40;11.68;;;5.72;;
77046;SDS011;65977;56.380;44.022;2022-12-18T13:25:42;8.75;;;5.72;;
77046;SDS011;65977;56.380;44.022;2022-12-18T13:45:44;9.05;;;5.72;;
77046;SDS011;65977;56.380;44.022;2022-12-18T13:48:25;8.20;;;4.88;;
77046;SDS011;65977;56.380;44.022;2022-12-18T13:50:57;8.35;;;5.68;;
77046;SDS011;65977;56.380;44.022;2022-12-18T13:53:27;7.90;;;5.13;;
77046;SDS011;65977;56.380;44.022;2022-12-18T13:55:55;7.95;;;4.55;;
77046;SDS011;65977;56.380;44.022;2022-12-18T13:58:22;7.78;;;5.45;;
77046;SDS011;65977;56.380;44.022;2022-12-18T14:00:47;10.10;;;6.63;;
77046;SDS011;65977;56.380;44.022;2022-12-18T14:03:20;8.70;;;5.13;;
77046;SDS011;65977;56.380;44.022;2022-12-18T14:05:58;7.93;;;5.03;;
77046;SDS011;65977;56.380;44.022;2022-12-18T14:08:30;8.10;;;5.32;;
77046;SDS011;65977;56.380;44.022;2022-12-18T14:10:59;10.90;;;5.82;;
77046;SDS011;65977;56.380;44.022;2022-12-18T14:13:28;9.68;;;5.78;;
77046;SDS011;65977;56.380;44.022;2022-12-18T14:15:56;9.45;;;5.50;;
77046;SDS011;65977;56.380;44.022;2022-12-18T14:21:06;9.50;;;5.85;;
77046;SDS011;65977;56.380;44.022;2022-12-18T14:23:41;9.68;;;5.75;;
77046;SDS011;65977;56.380;44.022;2022-12-18T14:26:24;9.48;;;6.30;;
77046;SDS011;65977;56.380;44.022;2022-12-18T14:28:53;9.07;;;5.72;;
77046;SDS011;65977;56.380;44.022;2022-12-18T14:31:27;11.48;;;6.55;;
77046;SDS011;65977;56.380;44.022;2022-12-18T14:33:56;8.68;;;5.15;;
77046;SDS011;65977;56.380;44.022;2022-12-18T14:36:28;10.93;;;6.10;;
77046;SDS011;65977;56.380;44.022;2022-12-18T14:38:55;9.90;;;5.40;;
77046;SDS011;65977;56.380;44.022;2022-12-18T14:41:23;8.63;;;5.55;;
77046;SDS011;65977;56.380;44.022;2022-12-18T14:43:51;9.05;;;5.72;;
77046;SDS011;65977;56.380;44.022;2022-12-18T14:49:02;9.48;;;5.90;;
77046;SDS011;65977;56.380;44.022;2022-12-18T14:51:49;10.95;;;5.80;;
77046;SDS011;65977;56.380;44.022;2022-12-18T14:54:18;9.85;;;6.13;;
77046;SDS011;65977;56.380;44.022;2022-12-18T14:56:46;8.48;;;5.88;;
77046;SDS011;65977;56.380;44.022;2022-12-18T14:59:19;9.80;;;6.43;;
77046;SDS011;65977;56.380;44.022;2022-12-18T15:02:01;9.85;;;6.05;;
77046;SDS011;65977;56.380;44.022;2022-12-18T15:04:40;9.98;;;6.57;;
77046;SDS011;65977;56.380;44.022;2022-12-18T15:10:10;9.48;;;6.38;;
77046;SDS011;65977;56.380;44.022;2022-12-18T15:12:43;10.52;;;6.05;;
77046;SDS011;65977;56.380;44.022;2022-12-18T15:25:46;9.98;;;5.53;;
77046;SDS011;65977;56.380;44.022;2022-12-18T15:31:36;10.55;;;6.22;;
77046;SDS011;65977;56.380;44.022;2022-12-18T15:33:44;8.35;;;5.78;;
77046;SDS011;65977;56.380;44.022;2022-12-18T15:36:30;11.38;;;6.53;;
77046;SDS011;65977;56.380;44.022;2022-12-18T15:38:56;9.32;;;5.50;;
77046;SDS011;65977;56.380;44.022;2022-12-18T15:41:23;10.82;;;6.35;;
77046;SDS011;65977;56.380;44.022;2022-12-18T15:43:50;7.00;;;4.20;;
77046;SDS011;65977;56.380;44.022;2022-12-18T15:46:21;9.25;;;6.03;;
77046;SDS011;65977;56.380;44.022;2022-12-18T15:48:51;9.93;;;6.50;;
77046;SDS011;65977;56.380;44.022;2022-12-18T15:53:58;10.60;;;5.78;;
77046;SDS011;65977;56.380;44.022;2022-12-18T15:56:26;13.95;;;6.68;;
77046;SDS011;65977;56.380;44.022;2022-12-18T15:59:14;9.20;;;5.60;;
77046;SDS011;65977;56.380;44.022;2022-12-18T16:01:42;8.10;;;5.40;;
77046;SDS011;65977;56.380;44.022;2022-12-18T16:04:13;11.15;;;5.85;;
77046;SDS011;65977;56.380;44.022;2022-12-18T16:06:41;11.10;;;5.38;;
77046;SDS011;65977;56.380;44.022;2022-12-18T16:09:07;9.25;;;5.78;;
77046;SDS011;65977;56.380;44.022;2022-12-18T16:11:35;9.38;;;5.80;;
77046;SDS011;65977;56.380;44.022;2022-12-18T16:14:22;7.68;;;5.25;;
77046;SDS011;65977;56.380;44.022;2022-12-18T16:16:52;8.40;;;5.35;;
77046;SDS011;65977;56.380;44.022;2022-12-18T16:19:19;8.77;;;5.28;;
77046;SDS011;65977;56.380;44.022;2022-12-18T16:21:46;10.13;;;5.57;;
77046;SDS011;65977;56.380;44.022;2022-12-18T16:24:15;8.57;;;5.95;;
77046;SDS011;65977;56.380;44.022;2022-12-18T16:26:49;8.48;;;5.47;;
77046;SDS011;65977;56.380;44.022;2022-12-18T16:29:19;9.43;;;5.43;;
77046;SDS011;65977;56.380;44.022;2022-12-18T16:31:52;8.77;;;5.28;;
77046;SDS011;65977;56.380;44.022;2022-12-18T16:34:22;10.18;;;5.70;;
77046;SDS011;65977;56.380;44.022;2022-12-18T16:36:52;11.75;;;7.70;;
77046;SDS011;65977;56.380;44.022;2022-12-18T16:39:21;9.35;;;5.90;;
77046;SDS011;65977;56.380;44.022;2022-12-18T16:41:47;9.13;;;5.50;;
77046;SDS011;65977;56.380;44.022;2022-12-18T16:44:13;8.25;;;5.43;;
77046;SDS011;65977;56.380;44.022;2022-12-18T16:46:39;8.65;;;5.18;;
77046;SDS011;65977;56.380;44.022;2022-12-18T16:49:08;8.40;;;5.07;;
77046;SDS011;65977;56.380;44.022;2022-12-18T16:51:35;8.63;;;5.65;;
77046;SDS011;65977;56.380;44.022;2022-12-18T16:54:00;9.68;;;6.35;;
77046;SDS011;65977;56.380;44.022;2022-12-18T16:56:26;8.32;;;5.68;;
77046;SDS011;65977;56.380;44.022;2022-12-18T16:58:52;8.90;;;5.75;;
77046;SDS011;65977;56.380;44.022;2022-12-18T17:01:20;9.30;;;5.90;;